sensor_id;sensor_type;location;lat;lon;timestamp;P1;durP1;ratioP1;P2;durP2;ratioP2
14203;SDS011;7185;51.854;6.622;2024-01-30T00:01:12;20.05;;;10.43;;
14203;SDS011;7185;51.854;6.622;2024-01-30T00:03:44;17.10;;;10.90;;
14203;SDS011;7185;51.854;6.622;2024-01-30T00:06:18;19.73;;;10.57;;
14203;SDS011;7185;51.854;6.622;2024-01-30T00:08:50;20.58;;;11.63;;
14203;SDS011;7185;51.854;6.622;2024-01-30T00:11:23;17.20;;;10.23;;
14203;SDS011;7185;51.854;6.622;2024-01-30T00:13:55;19.23;;;11.07;;
14203;SDS011;7185;51.854;6.622;2024-01-30T00:16:29;18.85;;;10.48;;
14203;SDS011;7185;51.854;6.622;2024-01-30T00:19:00;19.73;;;11.30;;
14203;SDS011;7185;51.854;6.622;2024-01-30T00:21:34;17.30;;;10.98;;
14203;SDS011;7185;51.854;6.622;2024-01-30T00:24:06;20.27;;;11.95;;
14203;SDS011;7185;51.854;6.622;2024-01-30T00:26:37;16.48;;;10.50;;
14203;SDS011;7185;51.854;6.622;2024-01-30T00:29:09;20.35;;;11.80;;
14203;SDS011;7185;51.854;6.622;2024-01-30T00:31:42;19.33;;;10.43;;
14203;SDS011;7185;51.854;6.622;2024-01-30T00:34:14;18.52;;;11.48;;
14203;SDS011;7185;51.854;6.622;2024-01-30T00:36:46;19.52;;;11.52;;
14203;SDS011;7185;51.854;6.622;2024-01-30T00:39:18;18.15;;;12.07;;
14203;SDS011;7185;51.854;6.622;2024-01-30T00:41:49;20.63;;;11.00;;
14203;SDS011;7185;51.854;6.622;2024-01-30T00:44:21;20.80;;;11.52;;
14203;SDS011;7185;51.854;6.622;2024-01-30T00:46:54;19.98;;;11.38;;
14203;SDS011;7185;51.854;6.622;2024-01-30T00:49:26;19.00;;;11.45;;
14203;SDS011;7185;51.854;6.622;2024-01-30T00:51:58;21.30;;;11.52;;
14203;SDS011;7185;51.854;6.622;2024-01-30T00:54:29;21.98;;;12.38;;
14203;SDS011;7185;51.854;6.622;2024-01-30T00:57:01;21.77;;;11.73;;
14203;SDS011;7185;51.854;6.622;2024-01-30T00:59:33;19.48;;;10.80;;
14203;SDS011;7185;51.854;6.622;2024-01-30T01:02:06;21.63;;;12.95;;
14203;SDS011;7185;51.854;6.622;2024-01-30T01:04:37;20.02;;;10.52;;
14203;SDS011;7185;51.854;6.622;2024-01-30T01:07:09;17.95;;;11.85;;
14203;SDS011;7185;51.854;6.622;2024-01-30T01:09:41;20.85;;;11.60;;
14203;SDS011;7185;51.854;6.622;2024-01-30T01:12:13;19.73;;;10.82;;
14203;SDS011;7185;51.854;6.622;2024-01-30T01:14:45;19.48;;;11.85;;
14203;SDS011;7185;51.854;6.622;2024-01-30T01:17:18;17.73;;;11.00;;
14203;SDS011;7185;51.854;6.622;2024-01-30T01:19:49;20.20;;;10.70;;
14203;SDS011;7185;51.854;6.622;2024-01-30T01:22:21;22.00;;;11.57;;
14203;SDS011;7185;51.854;6.622;2024-01-30T01:24:53;19.40;;;10.70;;
14203;SDS011;7185;51.854;6.622;2024-01-30T01:27:25;21.60;;;12.65;;
14203;SDS011;7185;51.854;6.622;2024-01-30T01:29:58;19.95;;;11.40;;
14203;SDS011;7185;51.854;6.622;2024-01-30T01:32:39;19.58;;;11.25;;
14203;SDS011;7185;51.854;6.622;2024-01-30T01:35:17;18.02;;;10.98;;
14203;SDS011;7185;51.854;6.622;2024-01-30T01:37:48;22.00;;;11.85;;
14203;SDS011;7185;51.854;6.622;2024-01-30T01:40:25;18.92;;;11.50;;
14203;SDS011;7185;51.854;6.622;2024-01-30T01:42:57;22.88;;;11.80;;
14203;SDS011;7185;51.854;6.622;2024-01-30T01:45:29;22.02;;;12.20;;
14203;SDS011;7185;51.854;6.622;2024-01-30T01:48:03;22.80;;;12.35;;
14203;SDS011;7185;51.854;6.622;2024-01-30T01:50:35;21.80;;;12.07;;
14203;SDS011;7185;51.854;6.622;2024-01-30T01:53:07;21.65;;;11.73;;
14203;SDS011;7185;51.854;6.622;2024-01-30T01:55:40;23.83;;;12.38;;
14203;SDS011;7185;51.854;6.622;2024-01-30T01:58:13;25.23;;;12.52;;
14203;SDS011;7185;51.854;6.622;2024-01-30T02:00:45;19.38;;;11.77;;
14203;SDS011;7185;51.854;6.622;2024-01-30T02:03:19;22.95;;;12.25;;
14203;SDS011;7185;51.854;6.622;2024-01-30T02:05:52;22.38;;;11.57;;
14203;SDS011;7185;51.854;6.622;2024-01-30T02:08:23;20.48;;;12.38;;
14203;SDS011;7185;51.854;6.622;2024-01-30T02:10:55;23.88;;;11.90;;
14203;SDS011;7185;51.854;6.622;2024-01-30T02:13:27;24.10;;;12.68;;
14203;SDS011;7185;51.854;6.622;2024-01-30T02:15:59;21.73;;;12.38;;
14203;SDS011;7185;51.854;6.622;2024-01-30T02:18:32;20.60;;;11.35;;
14203;SDS011;7185;51.854;6.622;2024-01-30T02:21:05;21.83;;;11.43;;
14203;SDS011;7185;51.854;6.622;2024-01-30T02:23:37;24.23;;;11.88;;
14203;SDS011;7185;51.854;6.622;2024-01-30T02:26:10;22.58;;;11.30;;
14203;SDS011;7185;51.854;6.622;2024-01-30T02:28:44;21.35;;;11.60;;
14203;SDS011;7185;51.854;6.622;2024-01-30T02:31:15;22.58;;;11.93;;
14203;SDS011;7185;51.854;6.622;2024-01-30T02:33:47;23.42;;;12.20;;
14203;SDS011;7185;51.854;6.622;2024-01-30T02:36:20;21.48;;;11.80;;
14203;SDS011;7185;51.854;6.622;2024-01-30T02:38:52;19.23;;;12.18;;
14203;SDS011;7185;51.854;6.622;2024-01-30T02:41:23;19.02;;;11.95;;
14203;SDS011;7185;51.854;6.622;2024-01-30T02:43:55;21.55;;;11.35;;
14203;SDS011;7185;51.854;6.622;2024-01-30T02:46:27;18.58;;;11.07;;
14203;SDS011;7185;51.854;6.622;2024-01-30T02:48:58;22.90;;;11.73;;
14203;SDS011;7185;51.854;6.622;2024-01-30T02:51:31;21.10;;;12.30;;
14203;SDS011;7185;51.854;6.622;2024-01-30T02:54:03;21.73;;;12.38;;
14203;SDS011;7185;51.854;6.622;2024-01-30T02:56:35;19.05;;;11.70;;
14203;SDS011;7185;51.854;6.622;2024-01-30T02:59:07;22.15;;;12.05;;
14203;SDS011;7185;51.854;6.622;2024-01-30T03:01:42;18.80;;;11.35;;
14203;SDS011;7185;51.854;6.622;2024-01-30T03:04:14;21.50;;;11.90;;
14203;SDS011;7185;51.854;6.622;2024-01-30T03:06:47;22.23;;;11.90;;
14203;SDS011;7185;51.854;6.622;2024-01-30T03:09:19;19.88;;;11.35;;
14203;SDS011;7185;51.854;6.622;2024-01-30T03:11:50;18.60;;;11.30;;
14203;SDS011;7185;51.854;6.622;2024-01-30T03:14:22;20.73;;;12.45;;
14203;SDS011;7185;51.854;6.622;2024-01-30T03:16:54;20.77;;;12.10;;
14203;SDS011;7185;51.854;6.622;2024-01-30T03:19:25;20.55;;;11.77;;
14203;SDS011;7185;51.854;6.622;2024-01-30T03:21:58;25.25;;;11.57;;
14203;SDS011;7185;51.854;6.622;2024-01-30T03:24:30;24.05;;;13.32;;
14203;SDS011;7185;51.854;6.622;2024-01-30T03:27:05;20.20;;;11.93;;
14203;SDS011;7185;51.854;6.622;2024-01-30T03:29:37;24.58;;;12.18;;
14203;SDS011;7185;51.854;6.622;2024-01-30T03:32:09;22.25;;;12.40;;
14203;SDS011;7185;51.854;6.622;2024-01-30T03:34:40;23.10;;;11.60;;
14203;SDS011;7185;51.854;6.622;2024-01-30T03:37:13;21.38;;;11.68;;
14203;SDS011;7185;51.854;6.622;2024-01-30T03:39:45;17.02;;;10.57;;
14203;SDS011;7185;51.854;6.622;2024-01-30T03:42:17;19.85;;;11.43;;
14203;SDS011;7185;51.854;6.622;2024-01-30T03:44:48;19.95;;;12.13;;
14203;SDS011;7185;51.854;6.622;2024-01-30T03:47:22;19.58;;;11.93;;
14203;SDS011;7185;51.854;6.622;2024-01-30T03:49:53;21.20;;;11.52;;
14203;SDS011;7185;51.854;6.622;2024-01-30T03:52:26;21.35;;;11.82;;
14203;SDS011;7185;51.854;6.622;2024-01-30T03:54:58;25.77;;;12.15;;
14203;SDS011;7185;51.854;6.622;2024-01-30T03:57:30;24.38;;;12.40;;
14203;SDS011;7185;51.854;6.622;2024-01-30T04:00:01;23.35;;;12.70;;
14203;SDS011;7185;51.854;6.622;2024-01-30T04:02:35;24.13;;;12.68;;
14203;SDS011;7185;51.854;6.622;2024-01-30T04:05:07;20.75;;;11.73;;
14203;SDS011;7185;51.854;6.622;2024-01-30T04:07:40;20.08;;;11.57;;
14203;SDS011;7185;51.854;6.622;2024-01-30T04:10:12;20.90;;;12.50;;
14203;SDS011;7185;51.854;6.622;2024-01-30T04:12:43;24.17;;;12.63;;
14203;SDS011;7185;51.854;6.622;2024-01-30T04:15:15;26.13;;;13.13;;
14203;SDS011;7185;51.854;6.622;2024-01-30T04:17:47;23.55;;;12.45;;
14203;SDS011;7185;51.854;6.622;2024-01-30T04:20:19;23.73;;;12.88;;
14203;SDS011;7185;51.854;6.622;2024-01-30T04:22:52;24.20;;;12.13;;
14203;SDS011;7185;51.854;6.622;2024-01-30T04:25:24;23.13;;;12.98;;
14203;SDS011;7185;51.854;6.622;2024-01-30T04:27:56;25.83;;;12.68;;
14203;SDS011;7185;51.854;6.622;2024-01-30T04:30:27;26.92;;;13.57;;
14203;SDS011;7185;51.854;6.622;2024-01-30T04:32:59;20.13;;;12.48;;
14203;SDS011;7185;51.854;6.622;2024-01-30T04:35:31;23.13;;;13.00;;
14203;SDS011;7185;51.854;6.622;2024-01-30T04:38:04;21.40;;;12.05;;
14203;SDS011;7185;51.854;6.622;2024-01-30T04:40:36;20.38;;;12.35;;
14203;SDS011;7185;51.854;6.622;2024-01-30T04:43:07;23.85;;;11.90;;
14203;SDS011;7185;51.854;6.622;2024-01-30T04:45:39;26.88;;;12.27;;
14203;SDS011;7185;51.854;6.622;2024-01-30T04:48:11;22.90;;;12.43;;
14203;SDS011;7185;51.854;6.622;2024-01-30T04:50:44;23.65;;;12.57;;
14203;SDS011;7185;51.854;6.622;2024-01-30T04:53:17;24.38;;;11.82;;
14203;SDS011;7185;51.854;6.622;2024-01-30T04:55:49;21.60;;;12.60;;
14203;SDS011;7185;51.854;6.622;2024-01-30T04:58:20;24.48;;;11.88;;
14203;SDS011;7185;51.854;6.622;2024-01-30T05:00:52;23.75;;;11.90;;
14203;SDS011;7185;51.854;6.622;2024-01-30T05:03:24;24.42;;;12.52;;
14203;SDS011;7185;51.854;6.622;2024-01-30T05:05:56;19.20;;;11.95;;
14203;SDS011;7185;51.854;6.622;2024-01-30T05:08:29;23.63;;;12.30;;
14203;SDS011;7185;51.854;6.622;2024-01-30T05:11:01;20.58;;;12.80;;
14203;SDS011;7185;51.854;6.622;2024-01-30T05:13:33;22.38;;;12.65;;
14203;SDS011;7185;51.854;6.622;2024-01-30T05:16:06;23.60;;;12.68;;
14203;SDS011;7185;51.854;6.622;2024-01-30T05:18:37;21.75;;;12.85;;
14203;SDS011;7185;51.854;6.622;2024-01-30T05:21:10;21.25;;;12.98;;
14203;SDS011;7185;51.854;6.622;2024-01-30T05:23:44;20.90;;;12.63;;
14203;SDS011;7185;51.854;6.622;2024-01-30T05:26:18;24.20;;;13.65;;
14203;SDS011;7185;51.854;6.622;2024-01-30T05:28:50;22.10;;;11.75;;
14203;SDS011;7185;51.854;6.622;2024-01-30T05:31:22;20.27;;;12.07;;
14203;SDS011;7185;51.854;6.622;2024-01-30T05:33:56;25.55;;;12.85;;
14203;SDS011;7185;51.854;6.622;2024-01-30T05:36:27;20.83;;;12.98;;
14203;SDS011;7185;51.854;6.622;2024-01-30T05:39:01;24.92;;;13.05;;
14203;SDS011;7185;51.854;6.622;2024-01-30T05:41:32;24.50;;;13.73;;
14203;SDS011;7185;51.854;6.622;2024-01-30T05:44:04;23.17;;;12.65;;
14203;SDS011;7185;51.854;6.622;2024-01-30T05:46:36;25.10;;;13.52;;
14203;SDS011;7185;51.854;6.622;2024-01-30T05:49:08;26.10;;;14.00;;
14203;SDS011;7185;51.854;6.622;2024-01-30T05:51:39;24.08;;;13.38;;
14203;SDS011;7185;51.854;6.622;2024-01-30T05:54:12;24.38;;;13.05;;
14203;SDS011;7185;51.854;6.622;2024-01-30T05:56:44;25.40;;;13.43;;
14203;SDS011;7185;51.854;6.622;2024-01-30T05:59:16;20.50;;;13.07;;
14203;SDS011;7185;51.854;6.622;2024-01-30T06:01:48;22.80;;;13.13;;
14203;SDS011;7185;51.854;6.622;2024-01-30T06:04:20;23.73;;;13.50;;
14203;SDS011;7185;51.854;6.622;2024-01-30T06:06:53;23.63;;;12.95;;
14203;SDS011;7185;51.854;6.622;2024-01-30T06:09:27;23.23;;;13.60;;
14203;SDS011;7185;51.854;6.622;2024-01-30T06:11:58;22.52;;;12.68;;
14203;SDS011;7185;51.854;6.622;2024-01-30T06:14:30;24.38;;;13.73;;
14203;SDS011;7185;51.854;6.622;2024-01-30T06:17:03;25.50;;;13.32;;
14203;SDS011;7185;51.854;6.622;2024-01-30T06:19:35;20.30;;;11.68;;
14203;SDS011;7185;51.854;6.622;2024-01-30T06:22:06;21.02;;;12.25;;
14203;SDS011;7185;51.854;6.622;2024-01-30T06:24:39;19.13;;;11.48;;
14203;SDS011;7185;51.854;6.622;2024-01-30T06:27:11;19.80;;;11.18;;
14203;SDS011;7185;51.854;6.622;2024-01-30T06:29:44;22.15;;;12.07;;
14203;SDS011;7185;51.854;6.622;2024-01-30T06:32:16;22.00;;;11.93;;
14203;SDS011;7185;51.854;6.622;2024-01-30T06:34:47;18.65;;;11.27;;
14203;SDS011;7185;51.854;6.622;2024-01-30T06:37:19;17.10;;;10.32;;
14203;SDS011;7185;51.854;6.622;2024-01-30T06:39:53;22.92;;;11.55;;
14203;SDS011;7185;51.854;6.622;2024-01-30T06:42:24;20.70;;;11.98;;
14203;SDS011;7185;51.854;6.622;2024-01-30T06:44:56;19.02;;;11.38;;
14203;SDS011;7185;51.854;6.622;2024-01-30T06:47:28;19.13;;;12.38;;
14203;SDS011;7185;51.854;6.622;2024-01-30T06:50:01;22.52;;;11.82;;
14203;SDS011;7185;51.854;6.622;2024-01-30T06:52:33;21.17;;;12.90;;
14203;SDS011;7185;51.854;6.622;2024-01-30T06:55:07;23.02;;;12.52;;
14203;SDS011;7185;51.854;6.622;2024-01-30T06:57:42;21.30;;;11.82;;
14203;SDS011;7185;51.854;6.622;2024-01-30T07:00:14;21.02;;;11.50;;
14203;SDS011;7185;51.854;6.622;2024-01-30T07:02:46;21.92;;;12.70;;
14203;SDS011;7185;51.854;6.622;2024-01-30T07:05:18;22.38;;;12.57;;
14203;SDS011;7185;51.854;6.622;2024-01-30T07:07:52;24.55;;;12.65;;
14203;SDS011;7185;51.854;6.622;2024-01-30T07:10:25;20.90;;;11.75;;
14203;SDS011;7185;51.854;6.622;2024-01-30T07:12:56;22.55;;;11.45;;
14203;SDS011;7185;51.854;6.622;2024-01-30T07:15:28;20.42;;;11.60;;
14203;SDS011;7185;51.854;6.622;2024-01-30T07:18:00;23.08;;;12.52;;
14203;SDS011;7185;51.854;6.622;2024-01-30T07:20:32;20.95;;;13.18;;
14203;SDS011;7185;51.854;6.622;2024-01-30T07:23:04;28.40;;;13.57;;
14203;SDS011;7185;51.854;6.622;2024-01-30T07:25:37;23.90;;;12.10;;
14203;SDS011;7185;51.854;6.622;2024-01-30T07:28:08;22.85;;;12.68;;
14203;SDS011;7185;51.854;6.622;2024-01-30T07:30:40;21.33;;;11.55;;
14203;SDS011;7185;51.854;6.622;2024-01-30T07:33:12;19.30;;;12.45;;
14203;SDS011;7185;51.854;6.622;2024-01-30T07:35:45;21.77;;;12.23;;
14203;SDS011;7185;51.854;6.622;2024-01-30T07:38:17;36.75;;;20.80;;
14203;SDS011;7185;51.854;6.622;2024-01-30T07:40:53;22.75;;;13.20;;
14203;SDS011;7185;51.854;6.622;2024-01-30T07:43:24;24.05;;;14.18;;
14203;SDS011;7185;51.854;6.622;2024-01-30T07:45:56;27.73;;;16.88;;
14203;SDS011;7185;51.854;6.622;2024-01-30T07:48:28;27.20;;;15.50;;
14203;SDS011;7185;51.854;6.622;2024-01-30T07:51:00;21.92;;;12.50;;
14203;SDS011;7185;51.854;6.622;2024-01-30T07:53:36;22.77;;;12.50;;
14203;SDS011;7185;51.854;6.622;2024-01-30T07:56:09;25.20;;;13.52;;
14203;SDS011;7185;51.854;6.622;2024-01-30T07:58:40;25.10;;;16.23;;
14203;SDS011;7185;51.854;6.622;2024-01-30T08:01:14;25.52;;;14.63;;
14203;SDS011;7185;51.854;6.622;2024-01-30T08:03:46;26.45;;;14.25;;
14203;SDS011;7185;51.854;6.622;2024-01-30T08:06:17;23.08;;;13.40;;
14203;SDS011;7185;51.854;6.622;2024-01-30T08:08:49;25.42;;;12.60;;
14203;SDS011;7185;51.854;6.622;2024-01-30T08:11:24;23.85;;;12.77;;
14203;SDS011;7185;51.854;6.622;2024-01-30T08:13:57;20.40;;;13.13;;
14203;SDS011;7185;51.854;6.622;2024-01-30T08:16:29;26.73;;;14.20;;
14203;SDS011;7185;51.854;6.622;2024-01-30T08:19:00;23.08;;;12.80;;
14203;SDS011;7185;51.854;6.622;2024-01-30T08:21:32;23.17;;;13.85;;
14203;SDS011;7185;51.854;6.622;2024-01-30T08:24:06;25.90;;;12.55;;
14203;SDS011;7185;51.854;6.622;2024-01-30T08:26:40;23.15;;;13.40;;
14203;SDS011;7185;51.854;6.622;2024-01-30T08:29:12;22.92;;;13.40;;
14203;SDS011;7185;51.854;6.622;2024-01-30T08:31:43;23.67;;;13.52;;
14203;SDS011;7185;51.854;6.622;2024-01-30T08:34:16;24.10;;;12.75;;
14203;SDS011;7185;51.854;6.622;2024-01-30T08:36:48;16.95;;;11.52;;
14203;SDS011;7185;51.854;6.622;2024-01-30T08:39:19;19.63;;;12.70;;
14203;SDS011;7185;51.854;6.622;2024-01-30T08:41:55;21.58;;;11.48;;
14203;SDS011;7185;51.854;6.622;2024-01-30T08:44:28;23.10;;;12.30;;
14203;SDS011;7185;51.854;6.622;2024-01-30T08:46:59;20.42;;;11.52;;
14203;SDS011;7185;51.854;6.622;2024-01-30T08:49:31;21.45;;;11.80;;
14203;SDS011;7185;51.854;6.622;2024-01-30T08:52:03;23.80;;;11.68;;
14203;SDS011;7185;51.854;6.622;2024-01-30T08:54:35;22.20;;;11.45;;
14203;SDS011;7185;51.854;6.622;2024-01-30T08:57:08;19.38;;;11.35;;
14203;SDS011;7185;51.854;6.622;2024-01-30T08:59:40;20.88;;;11.77;;
14203;SDS011;7185;51.854;6.622;2024-01-30T09:02:14;21.55;;;10.57;;
14203;SDS011;7185;51.854;6.622;2024-01-30T09:04:46;18.58;;;11.00;;
14203;SDS011;7185;51.854;6.622;2024-01-30T09:07:18;20.02;;;11.73;;
14203;SDS011;7185;51.854;6.622;2024-01-30T09:09:49;19.50;;;10.57;;
14203;SDS011;7185;51.854;6.622;2024-01-30T09:12:22;22.02;;;11.15;;
14203;SDS011;7185;51.854;6.622;2024-01-30T09:14:54;21.92;;;11.75;;
14203;SDS011;7185;51.854;6.622;2024-01-30T09:17:26;17.27;;;10.25;;
14203;SDS011;7185;51.854;6.622;2024-01-30T09:19:57;18.00;;;10.05;;
14203;SDS011;7185;51.854;6.622;2024-01-30T09:22:29;17.33;;;11.00;;
14203;SDS011;7185;51.854;6.622;2024-01-30T09:25:01;16.40;;;10.20;;
14203;SDS011;7185;51.854;6.622;2024-01-30T09:27:34;19.65;;;10.98;;
14203;SDS011;7185;51.854;6.622;2024-01-30T09:30:07;19.63;;;10.82;;
14203;SDS011;7185;51.854;6.622;2024-01-30T09:32:39;18.77;;;10.88;;
14203;SDS011;7185;51.854;6.622;2024-01-30T09:35:11;20.15;;;11.40;;
14203;SDS011;7185;51.854;6.622;2024-01-30T09:37:43;21.75;;;11.02;;
14203;SDS011;7185;51.854;6.622;2024-01-30T09:40:15;18.08;;;11.60;;
14203;SDS011;7185;51.854;6.622;2024-01-30T09:42:51;20.42;;;11.02;;
14203;SDS011;7185;51.854;6.622;2024-01-30T09:45:24;20.38;;;10.73;;
14203;SDS011;7185;51.854;6.622;2024-01-30T09:47:59;17.40;;;10.40;;
14203;SDS011;7185;51.854;6.622;2024-01-30T09:50:30;17.83;;;9.90;;
14203;SDS011;7185;51.854;6.622;2024-01-30T09:53:03;15.07;;;9.63;;
14203;SDS011;7185;51.854;6.622;2024-01-30T09:55:35;17.17;;;9.73;;
14203;SDS011;7185;51.854;6.622;2024-01-30T09:58:08;15.50;;;9.52;;
14203;SDS011;7185;51.854;6.622;2024-01-30T10:00:40;22.33;;;9.40;;
14203;SDS011;7185;51.854;6.622;2024-01-30T10:03:12;16.33;;;9.77;;
14203;SDS011;7185;51.854;6.622;2024-01-30T10:05:45;16.75;;;8.68;;
14203;SDS011;7185;51.854;6.622;2024-01-30T10:08:22;17.45;;;10.40;;
14203;SDS011;7185;51.854;6.622;2024-01-30T10:10:54;17.38;;;9.88;;
14203;SDS011;7185;51.854;6.622;2024-01-30T10:13:27;14.77;;;9.13;;
14203;SDS011;7185;51.854;6.622;2024-01-30T10:15:59;14.52;;;9.65;;
14203;SDS011;7185;51.854;6.622;2024-01-30T10:18:33;19.92;;;9.70;;
14203;SDS011;7185;51.854;6.622;2024-01-30T10:21:05;16.10;;;9.60;;
14203;SDS011;7185;51.854;6.622;2024-01-30T10:23:40;14.60;;;8.80;;
14203;SDS011;7185;51.854;6.622;2024-01-30T10:26:16;13.45;;;8.73;;
14203;SDS011;7185;51.854;6.622;2024-01-30T10:28:50;15.23;;;9.30;;
14203;SDS011;7185;51.854;6.622;2024-01-30T10:31:21;15.85;;;9.02;;
14203;SDS011;7185;51.854;6.622;2024-01-30T10:33:54;16.48;;;9.27;;
14203;SDS011;7185;51.854;6.622;2024-01-30T10:36:28;14.93;;;8.30;;
14203;SDS011;7185;51.854;6.622;2024-01-30T10:39:00;15.25;;;9.85;;
14203;SDS011;7185;51.854;6.622;2024-01-30T10:41:33;16.00;;;9.65;;
14203;SDS011;7185;51.854;6.622;2024-01-30T10:44:16;16.08;;;8.98;;
14203;SDS011;7185;51.854;6.622;2024-01-30T10:46:51;16.10;;;9.52;;
14203;SDS011;7185;51.854;6.622;2024-01-30T10:49:36;18.67;;;9.30;;
14203;SDS011;7185;51.854;6.622;2024-01-30T10:52:11;18.17;;;8.88;;
14203;SDS011;7185;51.854;6.622;2024-01-30T10:54:44;16.02;;;9.43;;
14203;SDS011;7185;51.854;6.622;2024-01-30T10:57:17;18.48;;;9.48;;
14203;SDS011;7185;51.854;6.622;2024-01-30T10:59:50;15.60;;;8.60;;
14203;SDS011;7185;51.854;6.622;2024-01-30T11:02:24;18.15;;;9.05;;
14203;SDS011;7185;51.854;6.622;2024-01-30T11:04:57;17.60;;;8.68;;
14203;SDS011;7185;51.854;6.622;2024-01-30T11:07:30;18.00;;;9.30;;
14203;SDS011;7185;51.854;6.622;2024-01-30T11:10:03;17.98;;;9.40;;
14203;SDS011;7185;51.854;6.622;2024-01-30T11:12:37;16.80;;;8.77;;
14203;SDS011;7185;51.854;6.622;2024-01-30T11:15:12;18.15;;;8.93;;
14203;SDS011;7185;51.854;6.622;2024-01-30T11:17:47;21.75;;;8.68;;
14203;SDS011;7185;51.854;6.622;2024-01-30T11:20:25;19.27;;;8.98;;
14203;SDS011;7185;51.854;6.622;2024-01-30T11:22:57;12.68;;;8.43;;
14203;SDS011;7185;51.854;6.622;2024-01-30T11:25:32;13.95;;;8.43;;
14203;SDS011;7185;51.854;6.622;2024-01-30T11:28:04;15.38;;;8.80;;
14203;SDS011;7185;51.854;6.622;2024-01-30T11:30:37;19.88;;;9.20;;
14203;SDS011;7185;51.854;6.622;2024-01-30T11:33:10;19.48;;;8.55;;
14203;SDS011;7185;51.854;6.622;2024-01-30T11:35:43;16.38;;;8.98;;
14203;SDS011;7185;51.854;6.622;2024-01-30T11:38:16;14.43;;;8.63;;
14203;SDS011;7185;51.854;6.622;2024-01-30T11:40:49;14.18;;;8.40;;
14203;SDS011;7185;51.854;6.622;2024-01-30T11:43:25;18.77;;;9.35;;
14203;SDS011;7185;51.854;6.622;2024-01-30T11:45:58;15.77;;;9.35;;
14203;SDS011;7185;51.854;6.622;2024-01-30T11:48:30;18.67;;;9.80;;
14203;SDS011;7185;51.854;6.622;2024-01-30T11:51:02;15.95;;;9.77;;
14203;SDS011;7185;51.854;6.622;2024-01-30T11:53:33;15.98;;;9.55;;
14203;SDS011;7185;51.854;6.622;2024-01-30T11:56:05;14.15;;;8.88;;
14203;SDS011;7185;51.854;6.622;2024-01-30T11:58:39;21.83;;;9.50;;
14203;SDS011;7185;51.854;6.622;2024-01-30T12:01:15;17.88;;;9.73;;
14203;SDS011;7185;51.854;6.622;2024-01-30T12:03:49;13.38;;;8.60;;
14203;SDS011;7185;51.854;6.622;2024-01-30T12:06:21;16.98;;;8.95;;
14203;SDS011;7185;51.854;6.622;2024-01-30T12:08:56;14.32;;;8.93;;
14203;SDS011;7185;51.854;6.622;2024-01-30T12:11:29;21.27;;;10.38;;
14203;SDS011;7185;51.854;6.622;2024-01-30T12:14:03;16.55;;;9.90;;
14203;SDS011;7185;51.854;6.622;2024-01-30T12:16:36;19.20;;;9.57;;
14203;SDS011;7185;51.854;6.622;2024-01-30T12:19:07;17.33;;;8.80;;
14203;SDS011;7185;51.854;6.622;2024-01-30T12:21:39;20.23;;;9.07;;
14203;SDS011;7185;51.854;6.622;2024-01-30T12:24:12;15.43;;;9.93;;
14203;SDS011;7185;51.854;6.622;2024-01-30T12:26:44;20.90;;;10.00;;
14203;SDS011;7185;51.854;6.622;2024-01-30T12:29:16;16.50;;;9.55;;
14203;SDS011;7185;51.854;6.622;2024-01-30T12:31:52;17.10;;;9.50;;
14203;SDS011;7185;51.854;6.622;2024-01-30T12:34:24;23.83;;;9.65;;
14203;SDS011;7185;51.854;6.622;2024-01-30T12:36:56;19.15;;;9.68;;
14203;SDS011;7185;51.854;6.622;2024-01-30T12:39:28;18.27;;;9.65;;
14203;SDS011;7185;51.854;6.622;2024-01-30T12:42:00;15.55;;;8.88;;
14203;SDS011;7185;51.854;6.622;2024-01-30T12:44:33;16.35;;;9.20;;
14203;SDS011;7185;51.854;6.622;2024-01-30T12:47:08;17.30;;;9.75;;
14203;SDS011;7185;51.854;6.622;2024-01-30T12:49:40;18.15;;;9.38;;
14203;SDS011;7185;51.854;6.622;2024-01-30T12:52:12;16.02;;;9.77;;
14203;SDS011;7185;51.854;6.622;2024-01-30T12:54:44;16.67;;;8.77;;
14203;SDS011;7185;51.854;6.622;2024-01-30T12:57:16;18.95;;;9.43;;
14203;SDS011;7185;51.854;6.622;2024-01-30T12:59:50;17.98;;;9.07;;
14203;SDS011;7185;51.854;6.622;2024-01-30T13:02:23;16.58;;;8.77;;
14203;SDS011;7185;51.854;6.622;2024-01-30T13:04:57;18.30;;;9.20;;
14203;SDS011;7185;51.854;6.622;2024-01-30T13:07:28;15.98;;;8.95;;
14203;SDS011;7185;51.854;6.622;2024-01-30T13:10:00;16.52;;;8.77;;
14203;SDS011;7185;51.854;6.622;2024-01-30T13:12:33;17.85;;;8.48;;
14203;SDS011;7185;51.854;6.622;2024-01-30T13:15:06;15.05;;;8.23;;
14203;SDS011;7185;51.854;6.622;2024-01-30T13:17:39;15.70;;;9.68;;
14203;SDS011;7185;51.854;6.622;2024-01-30T13:20:14;15.90;;;9.20;;
14203;SDS011;7185;51.854;6.622;2024-01-30T13:22:49;16.20;;;9.32;;
14203;SDS011;7185;51.854;6.622;2024-01-30T13:25:21;15.15;;;8.25;;
14203;SDS011;7185;51.854;6.622;2024-01-30T13:27:52;15.43;;;8.75;;
14203;SDS011;7185;51.854;6.622;2024-01-30T13:30:24;18.17;;;9.13;;
14203;SDS011;7185;51.854;6.622;2024-01-30T13:32:57;21.48;;;9.75;;
14203;SDS011;7185;51.854;6.622;2024-01-30T13:35:29;16.38;;;8.60;;
14203;SDS011;7185;51.854;6.622;2024-01-30T13:38:01;19.75;;;9.45;;
14203;SDS011;7185;51.854;6.622;2024-01-30T13:40:32;17.52;;;10.13;;
14203;SDS011;7185;51.854;6.622;2024-01-30T13:43:04;17.58;;;9.40;;
14203;SDS011;7185;51.854;6.622;2024-01-30T13:45:35;13.57;;;8.05;;
14203;SDS011;7185;51.854;6.622;2024-01-30T13:48:08;14.90;;;7.95;;
14203;SDS011;7185;51.854;6.622;2024-01-30T13:50:40;14.13;;;7.30;;
14203;SDS011;7185;51.854;6.622;2024-01-30T13:53:12;11.32;;;6.43;;
14203;SDS011;7185;51.854;6.622;2024-01-30T13:55:43;11.25;;;5.97;;
14203;SDS011;7185;51.854;6.622;2024-01-30T13:58:15;11.52;;;6.25;;
14203;SDS011;7185;51.854;6.622;2024-01-30T14:00:47;10.38;;;6.13;;
14203;SDS011;7185;51.854;6.622;2024-01-30T14:03:20;12.30;;;6.10;;
14203;SDS011;7185;51.854;6.622;2024-01-30T14:05:52;9.38;;;5.47;;
14203;SDS011;7185;51.854;6.622;2024-01-30T14:08:24;12.55;;;5.35;;
14203;SDS011;7185;51.854;6.622;2024-01-30T14:10:58;9.55;;;4.68;;
14203;SDS011;7185;51.854;6.622;2024-01-30T14:13:29;8.32;;;4.28;;
14203;SDS011;7185;51.854;6.622;2024-01-30T14:16:03;7.63;;;4.50;;
14203;SDS011;7185;51.854;6.622;2024-01-30T14:18:37;8.38;;;3.90;;
14203;SDS011;7185;51.854;6.622;2024-01-30T14:21:08;12.23;;;3.97;;
14203;SDS011;7185;51.854;6.622;2024-01-30T14:23:40;6.88;;;2.90;;
14203;SDS011;7185;51.854;6.622;2024-01-30T14:26:12;7.93;;;3.40;;
14203;SDS011;7185;51.854;6.622;2024-01-30T14:28:43;7.85;;;3.13;;
14203;SDS011;7185;51.854;6.622;2024-01-30T14:31:16;7.10;;;3.08;;
14203;SDS011;7185;51.854;6.622;2024-01-30T14:33:50;5.78;;;2.70;;
14203;SDS011;7185;51.854;6.622;2024-01-30T14:36:22;8.23;;;2.80;;
14203;SDS011;7185;51.854;6.622;2024-01-30T14:38:57;8.40;;;2.70;;
14203;SDS011;7185;51.854;6.622;2024-01-30T14:41:29;8.45;;;2.72;;
14203;SDS011;7185;51.854;6.622;2024-01-30T14:44:01;6.13;;;2.38;;
14203;SDS011;7185;51.854;6.622;2024-01-30T14:46:33;5.53;;;2.67;;
14203;SDS011;7185;51.854;6.622;2024-01-30T14:49:06;5.15;;;2.10;;
14203;SDS011;7185;51.854;6.622;2024-01-30T14:51:38;5.60;;;2.30;;
14203;SDS011;7185;51.854;6.622;2024-01-30T14:54:10;5.03;;;2.20;;
14203;SDS011;7185;51.854;6.622;2024-01-30T14:56:42;9.88;;;2.50;;
14203;SDS011;7185;51.854;6.622;2024-01-30T14:59:14;6.35;;;2.40;;
14203;SDS011;7185;51.854;6.622;2024-01-30T15:01:46;4.82;;;2.20;;
14203;SDS011;7185;51.854;6.622;2024-01-30T15:04:19;7.22;;;2.40;;
14203;SDS011;7185;51.854;6.622;2024-01-30T15:06:51;3.42;;;1.65;;
14203;SDS011;7185;51.854;6.622;2024-01-30T15:09:23;5.70;;;2.22;;
14203;SDS011;7185;51.854;6.622;2024-01-30T15:11:56;5.90;;;2.50;;